sensor_id;sensor_type;location;lat;lon;timestamp;temperature;humidity
52859;DHT22;38721;53.098;6.596;2022-07-31T00:01:49;17.90;6.20
52859;DHT22;38721;53.098;6.596;2022-07-31T00:04:18;17.90;81.50
52859;DHT22;38721;53.098;6.596;2022-07-31T00:06:44;17.80;45.50
52859;DHT22;38721;53.098;6.596;2022-07-31T00:09:10;17.80;78.60
52859;DHT22;38721;53.098;6.596;2022-07-31T00:11:35;17.80;28.10
52859;DHT22;38721;53.098;6.596;2022-07-31T00:14:01;17.80;9.40
52859;DHT22;38721;53.098;6.596;2022-07-31T00:16:27;17.70;95.40
52859;DHT22;38721;53.098;6.596;2022-07-31T00:18:52;17.70;92.30
52859;DHT22;38721;53.098;6.596;2022-07-31T00:21:21;17.70;99.90
52859;DHT22;38721;53.098;6.596;2022-07-31T00:23:47;17.70;97.70
52859;DHT22;38721;53.098;6.596;2022-07-31T00:26:12;17.70;99.90
52859;DHT22;38721;53.098;6.596;2022-07-31T00:28:38;17.60;86.20
52859;DHT22;38721;53.098;6.596;2022-07-31T00:31:04;17.60;99.90
52859;DHT22;38721;53.098;6.596;2022-07-31T00:33:29;17.60;99.90
52859;DHT22;38721;53.098;6.596;2022-07-31T00:35:55;17.60;99.90
52859;DHT22;38721;53.098;6.596;2022-07-31T00:38:20;17.50;99.90
52859;DHT22;38721;53.098;6.596;2022-07-31T00:40:52;17.50;99.90
52859;DHT22;38721;53.098;6.596;2022-07-31T00:43:18;17.40;99.90
52859;DHT22;38721;53.098;6.596;2022-07-31T00:45:44;17.40;99.90
52859;DHT22;38721;53.098;6.596;2022-07-31T00:48:10;17.40;99.90
52859;DHT22;38721;53.098;6.596;2022-07-31T00:50:36;17.40;99.90
52859;DHT22;38721;53.098;6.596;2022-07-31T00:53:02;17.40;99.90
52859;DHT22;38721;53.098;6.596;2022-07-31T00:55:27;17.40;99.90
52859;DHT22;38721;53.098;6.596;2022-07-31T00:57:53;17.40;99.90
52859;DHT22;38721;53.098;6.596;2022-07-31T01:00:19;17.40;99.90
52859;DHT22;38721;53.098;6.596;2022-07-31T01:02:45;17.40;99.90
52859;DHT22;38721;53.098;6.596;2022-07-31T01:05:10;17.30;99.90
52859;DHT22;38721;53.098;6.596;2022-07-31T01:07:36;17.30;99.90
52859;DHT22;38721;53.098;6.596;2022-07-31T01:10:06;17.20;99.90
52859;DHT22;38721;53.098;6.596;2022-07-31T01:12:38;17.20;99.90
52859;DHT22;38721;53.098;6.596;2022-07-31T01:15:08;17.20;99.90
52859;DHT22;38721;53.098;6.596;2022-07-31T01:17:35;17.20;99.90
52859;DHT22;38721;53.098;6.596;2022-07-31T01:20:01;17.10;99.90
52859;DHT22;38721;53.098;6.596;2022-07-31T01:28:37;17.10;99.90
52859;DHT22;38721;53.098;6.596;2022-07-31T01:31:08;17.10;99.90
52859;DHT22;38721;53.098;6.596;2022-07-31T01:33:42;17.10;99.90
52859;DHT22;38721;53.098;6.596;2022-07-31T01:36:24;17.10;99.90
52859;DHT22;38721;53.098;6.596;2022-07-31T01:38:54;17.10;99.90
52859;DHT22;38721;53.098;6.596;2022-07-31T01:41:25;17.10;99.90
52859;DHT22;38721;53.098;6.596;2022-07-31T01:43:54;17.20;99.90
52859;DHT22;38721;53.098;6.596;2022-07-31T01:46:25;17.10;99.90
52859;DHT22;38721;53.098;6.596;2022-07-31T01:48:53;17.10;99.90
52859;DHT22;38721;53.098;6.596;2022-07-31T01:51:20;17.10;99.90
52859;DHT22;38721;53.098;6.596;2022-07-31T01:53:48;17.20;99.90
52859;DHT22;38721;53.098;6.596;2022-07-31T01:56:16;17.20;99.90
52859;DHT22;38721;53.098;6.596;2022-07-31T01:58:43;17.20;99.90
52859;DHT22;38721;53.098;6.596;2022-07-31T02:01:10;17.30;99.90
52859;DHT22;38721;53.098;6.596;2022-07-31T02:03:39;17.30;99.90
52859;DHT22;38721;53.098;6.596;2022-07-31T02:06:05;17.30;99.90
52859;DHT22;38721;53.098;6.596;2022-07-31T02:08:34;17.30;99.90
52859;DHT22;38721;53.098;6.596;2022-07-31T02:11:01;17.30;99.90
52859;DHT22;38721;53.098;6.596;2022-07-31T02:13:27;17.30;99.90
52859;DHT22;38721;53.098;6.596;2022-07-31T02:15:55;17.30;99.90
52859;DHT22;38721;53.098;6.596;2022-07-31T02:18:23;17.30;99.90
52859;DHT22;38721;53.098;6.596;2022-07-31T02:20:50;17.40;99.90
52859;DHT22;38721;53.098;6.596;2022-07-31T02:23:16;17.40;99.90
52859;DHT22;38721;53.098;6.596;2022-07-31T02:25:44;17.50;99.90
52859;DHT22;38721;53.098;6.596;2022-07-31T02:28:13;17.40;99.90
52859;DHT22;38721;53.098;6.596;2022-07-31T02:30:43;17.40;99.90
52859;DHT22;38721;53.098;6.596;2022-07-31T02:33:12;17.50;99.90
52859;DHT22;38721;53.098;6.596;2022-07-31T02:35:39;17.50;99.90
52859;DHT22;38721;53.098;6.596;2022-07-31T02:38:06;17.50;96.60
52859;DHT22;38721;53.098;6.596;2022-07-31T02:40:33;17.50;99.90
52859;DHT22;38721;53.098;6.596;2022-07-31T02:43:00;17.50;92.00
52859;DHT22;38721;53.098;6.596;2022-07-31T02:45:26;17.50;25.20
52859;DHT22;38721;53.098;6.596;2022-07-31T02:47:52;17.60;31.80
52859;DHT22;38721;53.098;6.596;2022-07-31T02:50:18;17.60;43.10
52859;DHT22;38721;53.098;6.596;2022-07-31T02:52:44;17.50;96.10
52859;DHT22;38721;53.098;6.596;2022-07-31T02:55:10;17.50;75.10
52859;DHT22;38721;53.098;6.596;2022-07-31T02:57:36;17.60;39.40
52859;DHT22;38721;53.098;6.596;2022-07-31T03:00:22;17.50;99.90
52859;DHT22;38721;53.098;6.596;2022-07-31T03:02:53;17.50;92.80
52859;DHT22;38721;53.098;6.596;2022-07-31T03:05:22;17.50;45.80
52859;DHT22;38721;53.098;6.596;2022-07-31T03:07:47;17.50;34.10
52859;DHT22;38721;53.098;6.596;2022-07-31T03:10:13;17.40;56.10
52859;DHT22;38721;53.098;6.596;2022-07-31T03:12:40;17.50;55.60
52859;DHT22;38721;53.098;6.596;2022-07-31T03:15:12;17.40;97.50
52859;DHT22;38721;53.098;6.596;2022-07-31T03:17:39;17.50;75.10
52859;DHT22;38721;53.098;6.596;2022-07-31T03:20:06;17.50;27.80
52859;DHT22;38721;53.098;6.596;2022-07-31T03:22:32;17.40;36.30
52859;DHT22;38721;53.098;6.596;2022-07-31T03:24:59;17.40;7.20
52859;DHT22;38721;53.098;6.596;2022-07-31T03:27:25;17.40;32.70
52859;DHT22;38721;53.098;6.596;2022-07-31T03:29:51;17.40;38.00
52859;DHT22;38721;53.098;6.596;2022-07-31T03:32:19;17.40;34.30
52859;DHT22;38721;53.098;6.596;2022-07-31T03:34:45;17.30;48.70
52859;DHT22;38721;53.098;6.596;2022-07-31T03:37:11;17.30;32.00
52859;DHT22;38721;53.098;6.596;2022-07-31T03:39:36;17.30;80.30
52859;DHT22;38721;53.098;6.596;2022-07-31T03:42:02;17.30;56.10
52859;DHT22;38721;53.098;6.596;2022-07-31T03:44:30;17.20;17.80
52859;DHT22;38721;53.098;6.596;2022-07-31T03:46:58;17.20;4.70
52859;DHT22;38721;53.098;6.596;2022-07-31T03:49:24;17.20;59.30
52859;DHT22;38721;53.098;6.596;2022-07-31T03:51:50;17.10;3.20
52859;DHT22;38721;53.098;6.596;2022-07-31T03:54:16;17.00;13.20
52859;DHT22;38721;53.098;6.596;2022-07-31T03:56:45;17.00;48.20
52859;DHT22;38721;53.098;6.596;2022-07-31T03:59:14;17.00;80.70
52859;DHT22;38721;53.098;6.596;2022-07-31T04:01:40;16.90;99.90
52859;DHT22;38721;53.098;6.596;2022-07-31T04:04:06;16.90;96.50
52859;DHT22;38721;53.098;6.596;2022-07-31T04:06:32;16.90;87.50
52859;DHT22;38721;53.098;6.596;2022-07-31T04:08:57;16.90;99.90
52859;DHT22;38721;53.098;6.596;2022-07-31T04:11:27;16.90;99.90
52859;DHT22;38721;53.098;6.596;2022-07-31T04:13:53;16.90;98.60
52859;DHT22;38721;53.098;6.596;2022-07-31T04:16:19;17.00;77.10
52859;DHT22;38721;53.098;6.596;2022-07-31T04:18:44;17.00;95.40
52859;DHT22;38721;53.098;6.596;2022-07-31T04:21:10;17.00;97.30
52859;DHT22;38721;53.098;6.596;2022-07-31T04:23:36;17.00;99.90
52859;DHT22;38721;53.098;6.596;2022-07-31T04:26:02;17.10;88.60
52859;DHT22;38721;53.098;6.596;2022-07-31T04:28:28;17.10;99.90
52859;DHT22;38721;53.098;6.596;2022-07-31T04:30:53;17.20;69.20
52859;DHT22;38721;53.098;6.596;2022-07-31T04:33:19;17.30;36.80
52859;DHT22;38721;53.098;6.596;2022-07-31T04:35:45;17.40;39.60
52859;DHT22;38721;53.098;6.596;2022-07-31T04:38:11;17.40;40.90
52859;DHT22;38721;53.098;6.596;2022-07-31T04:40:37;17.50;99.90
52859;DHT22;38721;53.098;6.596;2022-07-31T04:43:03;17.60;73.50
52859;DHT22;38721;53.098;6.596;2022-07-31T04:45:28;17.60;73.90
52859;DHT22;38721;53.098;6.596;2022-07-31T04:48:01;17.70;5.20
52859;DHT22;38721;53.098;6.596;2022-07-31T04:50:27;17.70;26.90
52859;DHT22;38721;53.098;6.596;2022-07-31T04:52:53;17.70;9.80
52859;DHT22;38721;53.098;6.596;2022-07-31T04:55:19;17.80;1.00
52859;DHT22;38721;53.098;6.596;2022-07-31T04:57:45;17.90;1.00
52859;DHT22;38721;53.098;6.596;2022-07-31T05:00:11;17.80;1.00
52859;DHT22;38721;53.098;6.596;2022-07-31T05:02:37;17.80;1.00
52859;DHT22;38721;53.098;6.596;2022-07-31T05:05:06;17.90;1.00
52859;DHT22;38721;53.098;6.596;2022-07-31T05:07:31;17.90;1.00
52859;DHT22;38721;53.098;6.596;2022-07-31T05:09:58;17.90;1.00
52859;DHT22;38721;53.098;6.596;2022-07-31T05:12:24;18.00;1.00
52859;DHT22;38721;53.098;6.596;2022-07-31T05:14:50;18.00;1.00
52859;DHT22;38721;53.098;6.596;2022-07-31T05:17:16;18.10;1.00
52859;DHT22;38721;53.098;6.596;2022-07-31T05:19:42;18.10;1.00
52859;DHT22;38721;53.098;6.596;2022-07-31T05:22:08;18.10;1.00
52859;DHT22;38721;53.098;6.596;2022-07-31T05:24:33;18.20;1.00
52859;DHT22;38721;53.098;6.596;2022-07-31T05:27:00;18.20;1.00
52859;DHT22;38721;53.098;6.596;2022-07-31T05:29:26;18.20;1.00
52859;DHT22;38721;53.098;6.596;2022-07-31T05:31:52;18.40;1.00
52859;DHT22;38721;53.098;6.596;2022-07-31T05:34:18;18.40;1.00
52859;DHT22;38721;53.098;6.596;2022-07-31T05:36:43;18.40;1.00
52859;DHT22;38721;53.098;6.596;2022-07-31T05:39:09;18.50;1.00
52859;DHT22;38721;53.098;6.596;2022-07-31T05:41:36;18.40;1.00
52859;DHT22;38721;53.098;6.596;2022-07-31T05:44:03;18.40;1.00
52859;DHT22;38721;53.098;6.596;2022-07-31T05:46:31;18.40;1.00
52859;DHT22;38721;53.098;6.596;2022-07-31T05:48:57;18.40;1.00
52859;DHT22;38721;53.098;6.596;2022-07-31T05:51:22;18.40;1.00
52859;DHT22;38721;53.098;6.596;2022-07-31T05:53:48;18.50;1.00
52859;DHT22;38721;53.098;6.596;2022-07-31T05:56:14;18.60;1.00
52859;DHT22;38721;53.098;6.596;2022-07-31T05:58:39;18.60;1.00
52859;DHT22;38721;53.098;6.596;2022-07-31T06:01:05;18.60;1.00
52859;DHT22;38721;53.098;6.596;2022-07-31T06:03:31;18.70;1.00
52859;DHT22;38721;53.098;6.596;2022-07-31T06:06:04;18.70;1.00
52859;DHT22;38721;53.098;6.596;2022-07-31T06:08:30;18.80;1.00
52859;DHT22;38721;53.098;6.596;2022-07-31T06:10:56;18.80;1.00
52859;DHT22;38721;53.098;6.596;2022-07-31T06:13:24;18.90;1.00
52859;DHT22;38721;53.098;6.596;2022-07-31T06:15:50;19.00;1.00
52859;DHT22;38721;53.098;6.596;2022-07-31T06:18:19;19.10;1.00
52859;DHT22;38721;53.098;6.596;2022-07-31T06:20:44;19.10;1.00
52859;DHT22;38721;53.098;6.596;2022-07-31T06:23:10;19.20;1.00
52859;DHT22;38721;53.098;6.596;2022-07-31T06:25:36;19.30;1.00
52859;DHT22;38721;53.098;6.596;2022-07-31T06:28:02;19.20;1.00
52859;DHT22;38721;53.098;6.596;2022-07-31T06:30:27;19.40;99.90
52859;DHT22;38721;53.098;6.596;2022-07-31T06:32:53;19.40;99.90
52859;DHT22;38721;53.098;6.596;2022-07-31T06:35:22;19.40;99.90
52859;DHT22;38721;53.098;6.596;2022-07-31T06:37:47;19.60;1.00
52859;DHT22;38721;53.098;6.596;2022-07-31T06:40:13;19.70;99.90
52859;DHT22;38721;53.098;6.596;2022-07-31T06:42:39;19.70;99.90
52859;DHT22;38721;53.098;6.596;2022-07-31T06:45:05;19.80;99.90
52859;DHT22;38721;53.098;6.596;2022-07-31T06:47:31;19.80;99.90
52859;DHT22;38721;53.098;6.596;2022-07-31T06:49:56;19.90;99.90
52859;DHT22;38721;53.098;6.596;2022-07-31T06:52:23;19.80;99.90
52859;DHT22;38721;53.098;6.596;2022-07-31T06:54:49;19.90;99.90
52859;DHT22;38721;53.098;6.596;2022-07-31T06:57:14;20.00;99.90
52859;DHT22;38721;53.098;6.596;2022-07-31T06:59:40;20.10;99.90
52859;DHT22;38721;53.098;6.596;2022-07-31T07:02:06;19.90;99.90
52859;DHT22;38721;53.098;6.596;2022-07-31T07:04:32;20.10;99.90
52859;DHT22;38721;53.098;6.596;2022-07-31T07:06:58;20.20;99.90
52859;DHT22;38721;53.098;6.596;2022-07-31T07:09:24;20.40;99.90
52859;DHT22;38721;53.098;6.596;2022-07-31T07:11:49;20.30;99.90
52859;DHT22;38721;53.098;6.596;2022-07-31T07:14:18;20.40;99.90
52859;DHT22;38721;53.098;6.596;2022-07-31T07:16:44;20.30;99.90
52859;DHT22;38721;53.098;6.596;2022-07-31T07:19:10;20.30;99.90
52859;DHT22;38721;53.098;6.596;2022-07-31T07:21:35;20.40;99.90
52859;DHT22;38721;53.098;6.596;2022-07-31T07:24:01;20.50;99.90
52859;DHT22;38721;53.098;6.596;2022-07-31T07:26:28;20.50;99.90
52859;DHT22;38721;53.098;6.596;2022-07-31T07:28:54;20.70;99.90
52859;DHT22;38721;53.098;6.596;2022-07-31T07:31:20;20.70;99.90
52859;DHT22;38721;53.098;6.596;2022-07-31T07:33:46;20.80;99.90
52859;DHT22;38721;53.098;6.596;2022-07-31T07:36:13;20.80;99.90
52859;DHT22;38721;53.098;6.596;2022-07-31T07:38:39;20.90;99.90
52859;DHT22;38721;53.098;6.596;2022-07-31T07:41:04;21.00;99.90
52859;DHT22;38721;53.098;6.596;2022-07-31T07:43:30;21.10;99.90
52859;DHT22;38721;53.098;6.596;2022-07-31T07:45:56;21.30;99.90
52859;DHT22;38721;53.098;6.596;2022-07-31T07:48:21;21.40;99.90
52859;DHT22;38721;53.098;6.596;2022-07-31T07:50:47;21.50;99.90
52859;DHT22;38721;53.098;6.596;2022-07-31T07:53:13;21.50;99.90
52859;DHT22;38721;53.098;6.596;2022-07-31T07:55:39;21.70;99.90
52859;DHT22;38721;53.098;6.596;2022-07-31T07:58:04;21.90;99.90
52859;DHT22;38721;53.098;6.596;2022-07-31T08:00:30;22.10;99.90
52859;DHT22;38721;53.098;6.596;2022-07-31T08:02:56;22.20;99.90
52859;DHT22;38721;53.098;6.596;2022-07-31T08:05:22;22.30;99.90
52859;DHT22;38721;53.098;6.596;2022-07-31T08:07:47;22.40;99.90
52859;DHT22;38721;53.098;6.596;2022-07-31T08:10:13;22.50;99.90
52859;DHT22;38721;53.098;6.596;2022-07-31T08:12:43;22.60;99.90
52859;DHT22;38721;53.098;6.596;2022-07-31T08:15:09;22.80;99.90
52859;DHT22;38721;53.098;6.596;2022-07-31T08:17:35;23.00;99.90
52859;DHT22;38721;53.098;6.596;2022-07-31T08:20:01;22.70;99.90
52859;DHT22;38721;53.098;6.596;2022-07-31T08:22:27;22.80;99.90
52859;DHT22;38721;53.098;6.596;2022-07-31T08:24:52;22.80;99.90
52859;DHT22;38721;53.098;6.596;2022-07-31T08:27:18;22.70;99.90
52859;DHT22;38721;53.098;6.596;2022-07-31T08:29:51;22.60;99.90
52859;DHT22;38721;53.098;6.596;2022-07-31T08:32:17;22.70;99.90
52859;DHT22;38721;53.098;6.596;2022-07-31T08:34:43;22.60;99.90
52859;DHT22;38721;53.098;6.596;2022-07-31T08:37:09;22.60;99.90
52859;DHT22;38721;53.098;6.596;2022-07-31T08:39:36;22.60;99.90
52859;DHT22;38721;53.098;6.596;2022-07-31T08:42:06;22.50;99.90
52859;DHT22;38721;53.098;6.596;2022-07-31T08:44:35;22.30;99.90
52859;DHT22;38721;53.098;6.596;2022-07-31T08:47:01;22.10;99.90
52859;DHT22;38721;53.098;6.596;2022-07-31T08:49:32;22.20;99.90
52859;DHT22;38721;53.098;6.596;2022-07-31T08:52:01;22.00;99.90
52859;DHT22;38721;53.098;6.596;2022-07-31T08:54:27;22.10;99.90
52859;DHT22;38721;53.098;6.596;2022-07-31T08:56:53;21.90;1.00
52859;DHT22;38721;53.098;6.596;2022-07-31T08:59:22;21.90;1.00
52859;DHT22;38721;53.098;6.596;2022-07-31T09:01:48;21.80;1.00
52859;DHT22;38721;53.098;6.596;2022-07-31T09:04:14;21.70;1.00
52859;DHT22;38721;53.098;6.596;2022-07-31T09:06:40;21.70;1.00
52859;DHT22;38721;53.098;6.596;2022-07-31T09:09:06;21.50;1.00
52859;DHT22;38721;53.098;6.596;2022-07-31T09:11:31;21.50;99.90
52859;DHT22;38721;53.098;6.596;2022-07-31T09:14:01;21.40;99.90
52859;DHT22;38721;53.098;6.596;2022-07-31T09:16:27;21.50;99.90
52859;DHT22;38721;53.098;6.596;2022-07-31T09:19:00;21.60;99.90
52859;DHT22;38721;53.098;6.596;2022-07-31T09:21:26;21.60;99.90
52859;DHT22;38721;53.098;6.596;2022-07-31T09:24:02;21.50;99.90
52859;DHT22;38721;53.098;6.596;2022-07-31T09:26:35;21.70;99.90
52859;DHT22;38721;53.098;6.596;2022-07-31T09:29:02;21.80;99.90
52859;DHT22;38721;53.098;6.596;2022-07-31T09:31:33;21.80;99.90
52859;DHT22;38721;53.098;6.596;2022-07-31T09:33:59;21.70;99.90
52859;DHT22;38721;53.098;6.596;2022-07-31T09:36:27;21.80;1.00
52859;DHT22;38721;53.098;6.596;2022-07-31T09:38:54;21.60;1.00
52859;DHT22;38721;53.098;6.596;2022-07-31T09:41:22;21.60;1.00
52859;DHT22;38721;53.098;6.596;2022-07-31T09:43:59;21.50;3.10
52859;DHT22;38721;53.098;6.596;2022-07-31T09:46:41;21.50;1.00
52859;DHT22;38721;53.098;6.596;2022-07-31T09:49:08;21.40;1.00
52859;DHT22;38721;53.098;6.596;2022-07-31T09:51:41;21.40;83.10
52859;DHT22;38721;53.098;6.596;2022-07-31T09:54:21;21.30;99.90
52859;DHT22;38721;53.098;6.596;2022-07-31T09:56:47;21.30;99.90
52859;DHT22;38721;53.098;6.596;2022-07-31T09:59:15;21.20;99.90
52859;DHT22;38721;53.098;6.596;2022-07-31T10:01:42;21.00;99.90
52859;DHT22;38721;53.098;6.596;2022-07-31T10:04:09;21.00;99.90
52859;DHT22;38721;53.098;6.596;2022-07-31T10:06:35;21.10;99.90
52859;DHT22;38721;53.098;6.596;2022-07-31T10:09:03;21.00;99.90
52859;DHT22;38721;53.098;6.596;2022-07-31T10:11:30;21.10;99.90
52859;DHT22;38721;53.098;6.596;2022-07-31T10:14:00;21.20;99.90
52859;DHT22;38721;53.098;6.596;2022-07-31T10:16:28;21.40;99.90
52859;DHT22;38721;53.098;6.596;2022-07-31T10:18:59;21.40;99.90
52859;DHT22;38721;53.098;6.596;2022-07-31T10:21:31;21.30;99.90
52859;DHT22;38721;53.098;6.596;2022-07-31T10:23:59;21.50;99.90
52859;DHT22;38721;53.098;6.596;2022-07-31T10:26:29;21.50;99.90
52859;DHT22;38721;53.098;6.596;2022-07-31T10:28:56;21.50;99.90
52859;DHT22;38721;53.098;6.596;2022-07-31T10:31:22;21.50;99.90
52859;DHT22;38721;53.098;6.596;2022-07-31T10:33:48;21.50;99.90
52859;DHT22;38721;53.098;6.596;2022-07-31T10:36:18;21.50;99.90
52859;DHT22;38721;53.098;6.596;2022-07-31T10:39:12;21.60;99.90
52859;DHT22;38721;53.098;6.596;2022-07-31T10:42:02;21.40;99.90
52859;DHT22;38721;53.098;6.596;2022-07-31T10:44:38;21.50;99.90
52859;DHT22;38721;53.098;6.596;2022-07-31T10:47:12;21.50;99.90
52859;DHT22;38721;53.098;6.596;2022-07-31T10:49:43;21.40;99.90
52859;DHT22;38721;53.098;6.596;2022-07-31T10:52:09;21.40;99.90
52859;DHT22;38721;53.098;6.596;2022-07-31T10:54:45;21.40;99.90
52859;DHT22;38721;53.098;6.596;2022-07-31T10:57:25;21.50;99.90
52859;DHT22;38721;53.098;6.596;2022-07-31T10:59:52;21.40;99.90
52859;DHT22;38721;53.098;6.596;2022-07-31T11:02:31;21.40;99.90
52859;DHT22;38721;53.098;6.596;2022-07-31T11:05:11;21.40;99.90
52859;DHT22;38721;53.098;6.596;2022-07-31T11:07:44;21.50;99.90
52859;DHT22;38721;53.098;6.596;2022-07-31T11:12:35;21.40;99.90
52859;DHT22;38721;53.098;6.596;2022-07-31T11:15:01;21.30;99.90
52859;DHT22;38721;53.098;6.596;2022-07-31T11:17:34;21.20;99.90
52859;DHT22;38721;53.098;6.596;2022-07-31T11:20:03;21.20;99.90
52859;DHT22;38721;53.098;6.596;2022-07-31T11:22:29;21.20;99.90
52859;DHT22;38721;53.098;6.596;2022-07-31T11:24:55;21.30;1.00
52859;DHT22;38721;53.098;6.596;2022-07-31T11:27:32;21.30;99.90
52859;DHT22;38721;53.098;6.596;2022-07-31T11:30:06;21.10;99.90
52859;DHT22;38721;53.098;6.596;2022-07-31T11:32:32;21.00;99.90
52859;DHT22;38721;53.098;6.596;2022-07-31T11:34:57;20.90;99.90
52859;DHT22;38721;53.098;6.596;2022-07-31T11:37:31;20.70;99.90
52859;DHT22;38721;53.098;6.596;2022-07-31T11:39:57;20.80;99.90
52859;DHT22;38721;53.098;6.596;2022-07-31T11:42:25;20.80;99.90
52859;DHT22;38721;53.098;6.596;2022-07-31T11:44:52;20.70;1.00
52859;DHT22;38721;53.098;6.596;2022-07-31T11:47:36;20.60;1.00
52859;DHT22;38721;53.098;6.596;2022-07-31T11:50:04;20.60;1.00
52859;DHT22;38721;53.098;6.596;2022-07-31T11:52:29;20.60;1.00
52859;DHT22;38721;53.098;6.596;2022-07-31T11:55:05;20.50;1.00
52859;DHT22;38721;53.098;6.596;2022-07-31T11:57:33;20.40;1.00
52859;DHT22;38721;53.098;6.596;2022-07-31T12:00:11;20.40;18.40
52859;DHT22;38721;53.098;6.596;2022-07-31T12:02:42;20.30;28.50
52859;DHT22;38721;53.098;6.596;2022-07-31T12:05:11;20.30;63.00
52859;DHT22;38721;53.098;6.596;2022-07-31T12:07:42;20.20;38.50
52859;DHT22;38721;53.098;6.596;2022-07-31T12:10:09;20.10;51.70
52859;DHT22;38721;53.098;6.596;2022-07-31T12:12:36;20.20;46.70
52859;DHT22;38721;53.098;6.596;2022-07-31T12:15:18;20.20;37.00
52859;DHT22;38721;53.098;6.596;2022-07-31T12:17:47;20.30;72.30
52859;DHT22;38721;53.098;6.596;2022-07-31T12:20:24;20.10;1.00
52859;DHT22;38721;53.098;6.596;2022-07-31T12:22:59;20.10;58.90
52859;DHT22;38721;53.098;6.596;2022-07-31T12:25:26;20.10;60.00
52859;DHT22;38721;53.098;6.596;2022-07-31T12:27:53;20.20;72.80
52859;DHT22;38721;53.098;6.596;2022-07-31T12:30:19;20.30;86.50
52859;DHT22;38721;53.098;6.596;2022-07-31T12:32:47;20.20;96.20
52859;DHT22;38721;53.098;6.596;2022-07-31T12:35:12;20.10;61.30
52859;DHT22;38721;53.098;6.596;2022-07-31T12:37:46;20.30;99.90
52859;DHT22;38721;53.098;6.596;2022-07-31T12:40:27;20.20;97.00
52859;DHT22;38721;53.098;6.596;2022-07-31T12:42:54;20.20;99.90
52859;DHT22;38721;53.098;6.596;2022-07-31T12:45:36;20.00;99.90
52859;DHT22;38721;53.098;6.596;2022-07-31T12:48:03;20.20;99.90
52859;DHT22;38721;53.098;6.596;2022-07-31T12:50:32;20.00;97.80
52859;DHT22;38721;53.098;6.596;2022-07-31T12:53:01;20.30;99.90
52859;DHT22;38721;53.098;6.596;2022-07-31T12:55:30;20.20;1.40
52859;DHT22;38721;53.098;6.596;2022-07-31T12:57:56;20.40;91.10
52859;DHT22;38721;53.098;6.596;2022-07-31T13:00:23;20.40;94.80
52859;DHT22;38721;53.098;6.596;2022-07-31T13:02:56;20.50;72.50
52859;DHT22;38721;53.098;6.596;2022-07-31T13:05:22;20.60;62.10
52859;DHT22;38721;53.098;6.596;2022-07-31T13:07:48;20.50;65.20
52859;DHT22;38721;53.098;6.596;2022-07-31T13:10:14;20.50;4.90
52859;DHT22;38721;53.098;6.596;2022-07-31T13:12:40;20.60;32.20
52859;DHT22;38721;53.098;6.596;2022-07-31T13:15:06;20.50;10.60
52859;DHT22;38721;53.098;6.596;2022-07-31T13:17:32;20.40;21.60
52859;DHT22;38721;53.098;6.596;2022-07-31T13:19:58;20.50;69.40
52859;DHT22;38721;53.098;6.596;2022-07-31T13:22:24;20.50;99.20
52859;DHT22;38721;53.098;6.596;2022-07-31T13:24:49;20.40;99.90
52859;DHT22;38721;53.098;6.596;2022-07-31T13:27:15;20.50;99.90
52859;DHT22;38721;53.098;6.596;2022-07-31T13:29:43;20.40;99.90
52859;DHT22;38721;53.098;6.596;2022-07-31T13:32:09;20.30;99.90
52859;DHT22;38721;53.098;6.596;2022-07-31T13:34:34;20.20;99.90
52859;DHT22;38721;53.098;6.596;2022-07-31T13:37:00;20.00;99.90
52859;DHT22;38721;53.098;6.596;2022-07-31T13:39:26;20.20;99.90
52859;DHT22;38721;53.098;6.596;2022-07-31T13:41:51;20.20;99.90
52859;DHT22;38721;53.098;6.596;2022-07-31T13:44:17;20.30;99.90
52859;DHT22;38721;53.098;6.596;2022-07-31T13:46:43;20.40;99.90
52859;DHT22;38721;53.098;6.596;2022-07-31T13:49:08;20.60;99.90
52859;DHT22;38721;53.098;6.596;2022-07-31T13:51:36;20.70;99.90
52859;DHT22;38721;53.098;6.596;2022-07-31T13:54:02;20.70;99.90
52859;DHT22;38721;53.098;6.596;2022-07-31T13:56:28;20.70;99.90
52859;DHT22;38721;53.098;6.596;2022-07-31T13:58:54;20.80;99.90
52859;DHT22;38721;53.098;6.596;2022-07-31T14:01:19;20.80;99.90
52859;DHT22;38721;53.098;6.596;2022-07-31T14:03:45;20.80;99.90
52859;DHT22;38721;53.098;6.596;2022-07-31T14:06:11;20.90;99.90
52859;DHT22;38721;53.098;6.596;2022-07-31T14:08:37;20.90;99.90
52859;DHT22;38721;53.098;6.596;2022-07-31T14:11:03;20.80;99.90
52859;DHT22;38721;53.098;6.596;2022-07-31T14:13:29;20.80;99.90
52859;DHT22;38721;53.098;6.596;2022-07-31T14:15:54;21.10;99.90
52859;DHT22;38721;53.098;6.596;2022-07-31T14:18:20;21.10;99.90
52859;DHT22;38721;53.098;6.596;2022-07-31T14:20:47;21.10;99.90
52859;DHT22;38721;53.098;6.596;2022-07-31T14:23:13;21.20;99.90
52859;DHT22;38721;53.098;6.596;2022-07-31T14:25:40;21.10;99.90
52859;DHT22;38721;53.098;6.596;2022-07-31T14:28:07;21.20;99.90
52859;DHT22;38721;53.098;6.596;2022-07-31T14:30:37;21.00;99.90
52859;DHT22;38721;53.098;6.596;2022-07-31T14:33:06;21.10;99.90
52859;DHT22;38721;53.098;6.596;2022-07-31T14:35:31;21.00;99.90
52859;DHT22;38721;53.098;6.596;2022-07-31T14:38:00;21.10;99.90
52859;DHT22;38721;53.098;6.596;2022-07-31T14:40:26;21.20;99.90
52859;DHT22;38721;53.098;6.596;2022-07-31T14:42:55;21.10;40.70
52859;DHT22;38721;53.098;6.596;2022-07-31T14:45:21;21.00;99.90
52859;DHT22;38721;53.098;6.596;2022-07-31T14:47:47;21.20;99.90
52859;DHT22;38721;53.098;6.596;2022-07-31T14:50:14;21.30;99.90
52859;DHT22;38721;53.098;6.596;2022-07-31T14:52:43;21.50;99.90
52859;DHT22;38721;53.098;6.596;2022-07-31T14:55:09;21.30;99.90
52859;DHT22;38721;53.098;6.596;2022-07-31T14:57:35;21.60;97.50
52859;DHT22;38721;53.098;6.596;2022-07-31T15:00:00;21.60;19.90
52859;DHT22;38721;53.098;6.596;2022-07-31T15:02:26;21.60;1.00
52859;DHT22;38721;53.098;6.596;2022-07-31T15:04:52;21.30;1.00
52859;DHT22;38721;53.098;6.596;2022-07-31T15:07:18;21.10;1.00
52859;DHT22;38721;53.098;6.596;2022-07-31T15:09:47;21.10;1.00
52859;DHT22;38721;53.098;6.596;2022-07-31T15:12:12;21.10;77.80
52859;DHT22;38721;53.098;6.596;2022-07-31T15:14:42;21.30;1.00
52859;DHT22;38721;53.098;6.596;2022-07-31T15:17:07;21.40;23.10
52859;DHT22;38721;53.098;6.596;2022-07-31T15:19:33;21.80;99.90
52859;DHT22;38721;53.098;6.596;2022-07-31T15:21:59;22.00;99.90
52859;DHT22;38721;53.098;6.596;2022-07-31T15:24:27;22.20;99.90
52859;DHT22;38721;53.098;6.596;2022-07-31T15:26:53;21.90;99.90
52859;DHT22;38721;53.098;6.596;2022-07-31T15:29:18;22.10;99.90
52859;DHT22;38721;53.098;6.596;2022-07-31T15:31:45;22.30;99.90
52859;DHT22;38721;53.098;6.596;2022-07-31T15:34:10;22.50;99.90
52859;DHT22;38721;53.098;6.596;2022-07-31T15:36:36;22.40;99.90
52859;DHT22;38721;53.098;6.596;2022-07-31T15:39:02;22.80;35.80
52859;DHT22;38721;53.098;6.596;2022-07-31T15:41:28;22.60;72.70
52859;DHT22;38721;53.098;6.596;2022-07-31T15:43:54;22.40;99.90
52859;DHT22;38721;53.098;6.596;2022-07-31T15:46:19;22.50;99.90